createdAt,value
2018-05-12T00:00:26.335Z,13.10
2018-05-12T00:02:54.614Z,13.00
2018-05-12T00:05:22.174Z,13.00
2018-05-12T00:07:49.679Z,13.10
2018-05-12T00:10:17.255Z,13.10
2018-05-12T00:12:44.743Z,13.10
2018-05-12T00:15:12.237Z,13.10
2018-05-12T00:17:41.511Z,13.10
2018-05-12T00:20:09.749Z,13.00
2018-05-12T00:22:37.805Z,13.10
2018-05-12T00:25:06.202Z,13.00
2018-05-12T00:27:33.829Z,13.00
2018-05-12T00:30:01.414Z,13.00
2018-05-12T00:32:29.696Z,13.00
2018-05-12T00:34:58.821Z,12.90
2018-05-12T00:37:27.095Z,12.90
2018-05-12T00:39:55.358Z,12.90
2018-05-12T00:42:23.622Z,12.90
2018-05-12T00:44:51.132Z,12.90
2018-05-12T00:47:18.632Z,12.80
2018-05-12T00:49:46.376Z,12.80
2018-05-12T00:52:14.264Z,12.80
2018-05-12T00:54:41.786Z,12.80
2018-05-12T00:57:09.966Z,12.80
2018-05-12T00:59:38.264Z,12.80
2018-05-12T01:02:05.795Z,12.80
2018-05-12T01:04:34.065Z,12.80
2018-05-12T01:07:02.310Z,12.80
2018-05-12T01:09:30.739Z,12.80
2018-05-12T01:11:59.000Z,12.70
2018-05-12T01:14:26.583Z,12.70
2018-05-12T01:16:54.872Z,12.80
2018-05-12T01:19:23.198Z,12.80
2018-05-12T01:21:50.742Z,12.70
2018-05-12T01:24:18.882Z,12.80
2018-05-12T01:26:47.290Z,12.70
2018-05-12T01:29:15.466Z,12.70
2018-05-12T01:31:43.035Z,12.70
2018-05-12T01:34:10.677Z,12.70
2018-05-12T01:36:38.957Z,12.70
2018-05-12T01:39:07.235Z,12.70
2018-05-12T01:41:35.801Z,12.60
2018-05-12T01:44:03.480Z,12.60
2018-05-12T01:46:31.140Z,12.60
2018-05-12T01:48:58.654Z,12.60
2018-05-12T01:51:26.157Z,12.60
2018-05-12T01:53:53.696Z,12.50
2018-05-12T01:56:21.830Z,12.50
2018-05-12T01:58:50.129Z,12.50
2018-05-12T02:01:17.664Z,12.50
2018-05-12T02:03:45.917Z,12.50
2018-05-12T02:06:13.516Z,12.50
2018-05-12T02:08:42.396Z,12.50
2018-05-12T02:11:10.796Z,12.50
2018-05-12T02:13:39.694Z,12.50
2018-05-12T02:16:07.962Z,12.50
2018-05-12T02:18:35.466Z,12.50
2018-05-12T02:21:03.010Z,12.50
2018-05-12T02:23:30.572Z,12.50
2018-05-12T02:25:58.957Z,12.60
2018-05-12T02:28:27.249Z,12.70
2018-05-12T02:30:54.782Z,12.70
2018-05-12T02:33:22.324Z,12.80
2018-05-12T02:35:49.951Z,12.90
2018-05-12T02:38:17.467Z,13.00
2018-05-12T02:40:45.045Z,13.10
2018-05-12T02:43:13.316Z,13.30
2018-05-12T02:45:40.857Z,13.30
2018-05-12T02:48:09.062Z,13.40
2018-05-12T02:50:36.712Z,13.40
2018-05-12T02:53:04.198Z,13.50
2018-05-12T02:55:32.502Z,13.60
2018-05-12T02:58:00.771Z,13.60
2018-05-12T03:00:29.358Z,13.70
2018-05-12T03:02:57.720Z,13.70
2018-05-12T03:05:25.426Z,13.70
2018-05-12T03:07:52.968Z,13.70
2018-05-12T03:10:21.240Z,13.90
2018-05-12T03:12:50.297Z,13.90
2018-05-12T03:15:17.786Z,13.90
2018-05-12T03:17:45.398Z,13.90
2018-05-12T03:20:15.466Z,14.00
2018-05-12T03:22:44.563Z,13.90
2018-05-12T03:25:12.151Z,14.00
2018-05-12T03:27:39.678Z,14.00
2018-05-12T03:30:07.220Z,14.00
2018-05-12T03:32:34.735Z,14.10
2018-05-12T03:35:02.634Z,14.10
2018-05-12T03:37:31.041Z,14.10
2018-05-12T03:39:58.645Z,14.10
2018-05-12T03:42:26.466Z,14.20
2018-05-12T03:44:53.958Z,14.20
2018-05-12T03:47:21.581Z,14.20
2018-05-12T03:49:49.331Z,14.20
2018-05-12T03:52:16.860Z,14.20
2018-05-12T03:54:45.568Z,14.30
2018-05-12T03:57:13.152Z,14.30
2018-05-12T03:59:41.466Z,14.40
2018-05-12T04:02:09.020Z,14.40
2018-05-12T04:04:48.352Z,14.40
2018-05-12T04:07:27.762Z,14.40
2018-05-12T04:10:09.044Z,14.50
2018-05-12T04:12:39.265Z,14.60
2018-05-12T04:15:06.752Z,14.60
2018-05-12T04:17:35.028Z,14.60
2018-05-12T04:20:02.559Z,14.60
2018-05-12T04:22:30.180Z,14.70
2018-05-12T04:24:57.684Z,14.70
2018-05-12T04:27:25.183Z,14.70
2018-05-12T04:29:52.700Z,14.70
2018-05-12T04:32:21.180Z,14.80
2018-05-12T04:34:48.680Z,14.80
2018-05-12T04:37:16.949Z,14.80
2018-05-12T04:39:44.476Z,14.80
2018-05-12T04:42:11.991Z,14.80
2018-05-12T04:44:40.285Z,14.80
2018-05-12T04:47:08.695Z,14.80
2018-05-12T04:49:36.247Z,14.80
2018-05-12T04:52:04.590Z,14.80
2018-05-12T04:54:32.136Z,14.80
2018-05-12T04:57:00.258Z,14.90
2018-05-12T04:59:28.554Z,15.30
2018-05-12T05:01:56.084Z,15.30
2018-05-12T05:04:25.701Z,16.20
2018-05-12T05:06:53.973Z,16.60
2018-05-12T05:09:22.133Z,16.60
2018-05-12T05:11:49.631Z,16.80
2018-05-12T05:14:17.898Z,17.50
2018-05-12T05:16:46.867Z,18.10
2018-05-12T05:19:15.214Z,18.10
2018-05-12T05:21:42.714Z,18.50
2018-05-12T05:24:10.214Z,18.80
2018-05-12T05:26:39.434Z,19.30
2018-05-12T05:29:07.010Z,19.30
2018-05-12T05:31:34.522Z,19.60
2018-05-12T05:34:02.058Z,19.90
2018-05-12T05:36:29.882Z,20.10
2018-05-12T05:38:58.298Z,20.50
2018-05-12T05:41:25.786Z,20.50
2018-05-12T05:43:53.614Z,20.70
2018-05-12T05:46:21.438Z,20.90
2018-05-12T05:48:49.094Z,21.00
2018-05-12T05:51:17.646Z,21.10
2018-05-12T05:53:45.252Z,21.10
2018-05-12T05:56:12.798Z,21.00
2018-05-12T05:58:40.333Z,20.90
2018-05-12T06:01:07.894Z,21.00
2018-05-12T06:03:35.440Z,21.00
2018-05-12T06:06:03.716Z,21.30
2018-05-12T06:08:31.984Z,21.40
2018-05-12T06:10:59.511Z,21.40
2018-05-12T06:13:27.012Z,21.50
2018-05-12T06:15:55.270Z,21.80
2018-05-12T06:18:22.780Z,21.80
2018-05-12T06:20:51.368Z,21.80
2018-05-12T06:23:19.143Z,21.70
2018-05-12T06:25:46.767Z,21.70
2018-05-12T06:28:14.358Z,21.70
2018-05-12T06:30:42.646Z,21.80
2018-05-12T06:33:10.936Z,21.90
2018-05-12T06:35:39.887Z,21.80
2018-05-12T06:38:07.388Z,21.90
2018-05-12T06:40:34.988Z,22.10
2018-05-12T06:43:03.408Z,22.60
2018-05-12T06:45:31.803Z,22.50
2018-05-12T06:48:00.082Z,22.30
2018-05-12T06:50:29.610Z,22.30
2018-05-12T06:52:57.601Z,22.20
2018-05-12T06:55:27.887Z,22.30
2018-05-12T06:57:56.946Z,22.40
2018-05-12T07:00:24.460Z,22.30
2018-05-12T07:02:53.043Z,22.40
2018-05-12T07:05:22.443Z,22.50
2018-05-12T07:07:50.726Z,22.50
2018-05-12T07:10:20.332Z,22.70
2018-05-12T07:12:48.634Z,22.80
2018-05-12T07:15:16.938Z,22.80
2018-05-12T07:17:44.504Z,22.80
2018-05-12T07:20:12.035Z,22.90
2018-05-12T07:22:40.331Z,23.00
2018-05-12T07:25:07.848Z,22.90
2018-05-12T07:27:35.384Z,23.00
2018-05-12T07:30:02.920Z,22.80
2018-05-12T07:32:31.400Z,22.20
2018-05-12T07:34:59.702Z,22.30
2018-05-12T07:37:27.673Z,22.20
2018-05-12T07:39:55.288Z,22.30
2018-05-12T07:42:22.874Z,22.50
2018-05-12T07:44:50.406Z,22.60
2018-05-12T07:47:18.191Z,22.70
2018-05-12T07:49:45.900Z,22.50
2018-05-12T07:52:13.556Z,22.40
2018-05-12T07:54:42.958Z,22.70
2018-05-12T07:57:11.220Z,22.60
2018-05-12T07:59:39.536Z,22.50
2018-05-12T08:02:07.056Z,22.50
2018-05-12T08:04:34.711Z,22.40
2018-05-12T08:07:02.278Z,22.30
2018-05-12T08:09:30.579Z,22.70
2018-05-12T08:11:58.126Z,22.70
2018-05-12T08:14:25.958Z,22.90
2018-05-12T08:16:53.472Z,23.40
2018-05-12T08:19:22.538Z,24.00
2018-05-12T08:21:50.109Z,24.00
2018-05-12T08:24:17.610Z,24.10
2018-05-12T08:26:46.046Z,23.80
2018-05-12T08:29:13.830Z,23.80
2018-05-12T08:31:41.426Z,23.40
2018-05-12T08:34:09.856Z,22.70
2018-05-12T08:36:37.504Z,22.70
2018-05-12T08:39:05.204Z,22.70
2018-05-12T08:41:32.720Z,22.70
2018-05-12T08:44:02.358Z,23.00
2018-05-12T08:46:29.869Z,23.00
2018-05-12T08:48:58.240Z,23.10
2018-05-12T08:51:27.726Z,23.10
2018-05-12T08:53:56.930Z,23.40
2018-05-12T08:56:25.114Z,23.70
2018-05-12T08:58:52.814Z,23.90
2018-05-12T09:01:20.434Z,24.10
2018-05-12T09:03:49.300Z,24.30
2018-05-12T09:06:17.586Z,24.50
2018-05-12T09:08:45.947Z,24.60
2018-05-12T09:11:13.536Z,24.60
2018-05-12T09:13:41.134Z,24.70
2018-05-12T09:16:09.552Z,25.00
2018-05-12T09:18:37.986Z,25.10
2018-05-12T09:21:05.581Z,25.20
2018-05-12T09:23:33.077Z,25.20
2018-05-12T09:26:00.770Z,25.10
2018-05-12T09:28:29.140Z,25.10
2018-05-12T09:30:56.730Z,25.10
2018-05-12T09:33:25.000Z,25.40
2018-05-12T09:35:52.518Z,25.30
2018-05-12T09:38:20.692Z,25.30
2018-05-12T09:40:48.356Z,25.30
2018-05-12T09:43:15.954Z,25.30
2018-05-12T09:45:43.495Z,25.40
2018-05-12T09:48:11.649Z,25.10
2018-05-12T09:50:39.606Z,24.90
2018-05-12T09:53:07.976Z,24.90
2018-05-12T09:55:35.516Z,25.00
2018-05-12T09:58:03.832Z,25.10
2018-05-12T10:00:32.293Z,25.10
2018-05-12T10:02:59.830Z,25.10
2018-05-12T10:05:27.431Z,25.10
2018-05-12T10:07:56.622Z,25.20
2018-05-12T10:10:25.028Z,25.30
2018-05-12T10:12:52.597Z,25.30
2018-05-12T10:15:20.234Z,25.40
2018-05-12T10:17:47.806Z,25.20
2018-05-12T10:20:15.434Z,24.90
2018-05-12T10:22:44.246Z,24.70
2018-05-12T10:25:12.544Z,24.70
2018-05-12T10:27:40.826Z,24.80
2018-05-12T10:30:09.120Z,24.90
2018-05-12T10:32:36.648Z,24.90
2018-05-12T10:35:04.147Z,24.80
2018-05-12T10:37:31.722Z,25.10
2018-05-12T10:39:59.273Z,25.40
2018-05-12T10:42:26.770Z,25.60
2018-05-12T10:44:54.264Z,25.80
2018-05-12T10:47:22.584Z,25.80
2018-05-12T10:49:51.820Z,25.70
2018-05-12T10:52:19.422Z,25.80
2018-05-12T10:54:48.410Z,25.60
2018-05-12T10:57:16.987Z,25.20
2018-05-12T10:59:46.019Z,24.90
2018-05-12T11:02:15.214Z,24.70
2018-05-12T11:04:43.475Z,24.60
2018-05-12T11:07:12.651Z,24.60
2018-05-12T11:09:40.234Z,24.60
2018-05-12T11:12:10.304Z,25.20
2018-05-12T11:14:37.958Z,25.10
2018-05-12T11:17:06.292Z,25.10
2018-05-12T11:19:33.999Z,25.00
2018-05-12T11:22:02.365Z,24.90
2018-05-12T11:24:30.951Z,25.00
2018-05-12T11:26:58.530Z,25.00
2018-05-12T11:29:28.043Z,25.40
2018-05-12T11:31:55.662Z,25.40
2018-05-12T11:34:23.366Z,25.50
2018-05-12T11:36:50.984Z,25.60
2018-05-12T11:39:18.535Z,25.30
2018-05-12T11:41:46.097Z,25.00
2018-05-12T11:44:13.780Z,24.80
2018-05-12T11:46:41.495Z,24.50
2018-05-12T11:49:10.941Z,24.60
2018-05-12T11:51:38.442Z,24.60
2018-05-12T11:54:06.580Z,24.70
2018-05-12T11:56:34.160Z,24.70
2018-05-12T11:59:01.715Z,24.80
2018-05-12T12:01:29.471Z,24.80
2018-05-12T12:03:57.196Z,24.50
2018-05-12T12:06:24.819Z,24.40
2018-05-12T12:08:54.704Z,24.60
2018-05-12T12:11:23.064Z,24.50
2018-05-12T12:13:50.901Z,24.50
2018-05-12T12:16:18.499Z,24.30
2018-05-12T12:18:46.054Z,24.40
2018-05-12T12:21:15.368Z,24.60
2018-05-12T12:23:42.884Z,24.50
2018-05-12T12:26:10.424Z,24.50
2018-05-12T12:28:37.942Z,24.70
2018-05-12T12:31:05.453Z,25.00
2018-05-12T12:33:33.860Z,25.00
2018-05-12T12:36:01.455Z,25.00
2018-05-12T12:38:28.978Z,24.70
2018-05-12T12:40:56.489Z,24.50
2018-05-12T12:43:25.440Z,24.30
2018-05-12T12:45:52.948Z,24.10
2018-05-12T12:48:20.746Z,24.10
2018-05-12T12:50:48.992Z,24.40
2018-05-12T12:53:16.541Z,24.40
2018-05-12T12:55:44.176Z,24.60
2018-05-12T12:58:11.761Z,24.60
2018-05-12T13:00:39.279Z,24.60
2018-05-12T13:03:07.612Z,24.60
2018-05-12T13:05:36.996Z,24.50
2018-05-12T13:08:04.634Z,24.60
2018-05-12T13:10:32.977Z,24.20
2018-05-12T13:13:00.641Z,24.10
2018-05-12T13:15:28.786Z,23.90
2018-05-12T13:17:56.344Z,24.00
2018-05-12T13:20:25.234Z,24.00
2018-05-12T13:22:53.585Z,23.50
2018-05-12T13:25:21.121Z,23.50
2018-05-12T13:27:48.740Z,23.50
2018-05-12T13:30:16.684Z,23.70
2018-05-12T13:32:44.396Z,23.80
2018-05-12T13:35:12.773Z,23.80
2018-05-12T13:37:41.780Z,23.70
2018-05-12T13:40:09.335Z,23.50
2018-05-12T13:42:36.882Z,23.30
2018-05-12T13:45:05.199Z,23.30
2018-05-12T13:47:32.772Z,23.30
2018-05-12T13:50:00.274Z,23.40
2018-05-12T13:52:27.792Z,23.60
2018-05-12T13:54:55.299Z,23.90
2018-05-12T13:57:24.104Z,24.30
2018-05-12T13:59:53.966Z,24.40
2018-05-12T14:02:21.592Z,24.40
2018-05-12T14:04:49.915Z,24.30
2018-05-12T14:07:17.513Z,24.30
2018-05-12T14:09:45.860Z,23.80
2018-05-12T14:12:13.420Z,23.80
2018-05-12T14:14:41.763Z,23.40
2018-05-12T14:17:10.364Z,23.40
2018-05-12T14:19:37.909Z,23.40
2018-05-12T14:22:05.401Z,23.50
2018-05-12T14:24:33.012Z,23.60
2018-05-12T14:27:00.699Z,23.70
2018-05-12T14:29:29.434Z,23.90
2018-05-12T14:31:57.498Z,23.90
2018-05-12T14:34:25.986Z,24.00
2018-05-12T14:36:53.590Z,24.00
2018-05-12T14:39:21.106Z,24.10
2018-05-12T14:41:49.385Z,24.10
2018-05-12T14:44:18.544Z,24.00
2018-05-12T14:46:46.518Z,24.00
2018-05-12T14:49:15.691Z,23.50
2018-05-12T14:51:43.192Z,23.50
2018-05-12T14:54:10.679Z,23.30
2018-05-12T14:56:38.951Z,23.20
2018-05-12T14:59:07.230Z,23.20
2018-05-12T15:01:35.355Z,23.20
2018-05-12T15:04:03.015Z,23.30
2018-05-12T15:06:30.791Z,23.40
2018-05-12T15:08:58.795Z,23.50
2018-05-12T15:11:26.312Z,23.40
2018-05-12T15:13:53.821Z,23.40
2018-05-12T15:16:21.351Z,23.30
2018-05-12T15:18:48.919Z,23.30
2018-05-12T15:21:16.475Z,23.40
2018-05-12T15:23:44.422Z,23.50
2018-05-12T15:26:12.728Z,23.90
2018-05-12T15:28:40.308Z,23.90
2018-05-12T15:31:07.969Z,24.10
2018-05-12T15:33:36.630Z,24.10
2018-05-12T15:36:04.880Z,23.90
2018-05-12T15:38:32.443Z,23.90
2018-05-12T15:41:00.099Z,23.70
2018-05-12T15:43:29.061Z,23.50
2018-05-12T15:45:57.847Z,23.40
2018-05-12T15:48:25.481Z,23.40
2018-05-12T15:50:52.989Z,23.40
2018-05-12T15:53:20.519Z,23.40
2018-05-12T15:55:48.322Z,23.40
2018-05-12T15:58:15.831Z,23.30
2018-05-12T16:00:43.417Z,23.30
2018-05-12T16:03:11.751Z,23.10
2018-05-12T16:05:39.577Z,23.20
2018-05-12T16:08:07.846Z,23.20
2018-05-12T16:10:36.715Z,23.10
2018-05-12T16:13:04.236Z,23.00
2018-05-12T16:15:31.803Z,23.00
2018-05-12T16:17:59.308Z,22.90
2018-05-12T16:20:26.822Z,22.90
2018-05-12T16:22:54.548Z,22.90
2018-05-12T16:25:23.516Z,22.80
2018-05-12T16:27:51.233Z,22.80
2018-05-12T16:30:19.510Z,22.80
2018-05-12T16:32:47.344Z,22.80
2018-05-12T16:35:14.888Z,22.80
2018-05-12T16:37:43.622Z,22.80
2018-05-12T16:40:11.147Z,22.80
2018-05-12T16:42:39.065Z,22.80
2018-05-12T16:45:06.928Z,22.70
2018-05-12T16:47:35.803Z,22.60
2018-05-12T16:50:03.437Z,22.60
2018-05-12T16:52:30.944Z,22.60
2018-05-12T16:54:58.535Z,22.60
2018-05-12T16:57:26.308Z,22.50
2018-05-12T16:59:54.602Z,22.50
2018-05-12T17:02:22.125Z,22.50
2018-05-12T17:04:49.618Z,22.50
2018-05-12T17:07:18.678Z,22.40
2018-05-12T17:09:46.197Z,22.40
2018-05-12T17:12:13.692Z,22.40
2018-05-12T17:14:41.242Z,22.40
2018-05-12T17:17:09.237Z,22.40
2018-05-12T17:19:37.601Z,22.40
2018-05-12T17:22:05.087Z,22.30
2018-05-12T17:24:32.637Z,22.30
2018-05-12T17:27:01.055Z,22.20
2018-05-12T17:29:28.610Z,22.20
2018-05-12T17:31:56.438Z,22.20
2018-05-12T17:34:23.935Z,22.20
2018-05-12T17:36:51.458Z,22.10
2018-05-12T17:39:19.533Z,22.10
2018-05-12T17:41:47.059Z,22.10
2018-05-12T17:44:15.456Z,22.00
2018-05-12T17:46:42.896Z,22.00
2018-05-12T17:49:10.414Z,22.00
2018-05-12T17:51:37.948Z,22.00
2018-05-12T17:54:06.590Z,21.90
2018-05-12T17:56:34.271Z,21.90
2018-05-12T17:59:03.187Z,21.90
2018-05-12T18:01:31.015Z,21.80
2018-05-12T18:03:58.791Z,21.70
2018-05-12T18:06:26.563Z,21.70
2018-05-12T18:08:54.958Z,21.60
2018-05-12T18:11:22.608Z,21.60
2018-05-12T18:13:50.911Z,21.50
2018-05-12T18:16:18.467Z,21.40
2018-05-12T18:18:46.050Z,21.40
2018-05-12T18:21:13.665Z,21.40
2018-05-12T18:23:41.864Z,21.30
2018-05-12T18:26:09.627Z,21.20
2018-05-12T18:28:37.637Z,21.20
2018-05-12T18:31:05.187Z,21.10
2018-05-12T18:33:33.016Z,21.00
2018-05-12T18:36:00.554Z,21.00
2018-05-12T18:38:28.929Z,20.80
2018-05-12T18:40:57.527Z,20.80
2018-05-12T18:43:25.799Z,20.70
2018-05-12T18:45:54.616Z,20.70
2018-05-12T18:48:22.376Z,20.70
2018-05-12T18:50:50.755Z,20.70
2018-05-12T18:53:19.011Z,20.60
2018-05-12T18:55:46.687Z,20.60
2018-05-12T18:58:16.108Z,20.50
2018-05-12T19:00:44.627Z,20.40
2018-05-12T19:03:12.151Z,20.40
2018-05-12T19:05:40.630Z,20.30
2018-05-12T19:08:08.980Z,20.30
2018-05-12T19:10:36.854Z,20.30
2018-05-12T19:13:04.362Z,20.30
2018-05-12T19:15:32.648Z,20.20
2018-05-12T19:18:00.740Z,20.20
2018-05-12T19:20:28.298Z,20.10
2018-05-12T19:22:55.860Z,20.10
2018-05-12T19:25:23.456Z,20.00
2018-05-12T19:27:50.954Z,20.00
2018-05-12T19:30:18.922Z,19.90
2018-05-12T19:32:46.453Z,19.80
2018-05-12T19:35:13.989Z,19.80
2018-05-12T19:37:41.566Z,19.70
2018-05-12T19:40:09.112Z,19.70
2018-05-12T19:42:37.490Z,19.60
2018-05-12T19:45:05.771Z,19.60
2018-05-12T19:47:34.048Z,19.50
2018-05-12T19:50:02.321Z,19.50
2018-05-12T19:52:29.924Z,19.50
2018-05-12T19:54:57.590Z,19.50
2018-05-12T19:57:25.109Z,19.40
2018-05-12T19:59:53.398Z,19.40
2018-05-12T20:02:22.698Z,19.30
2018-05-12T20:04:51.007Z,19.30
2018-05-12T20:07:18.570Z,19.30
2018-05-12T20:09:46.138Z,19.20
2018-05-12T20:12:13.679Z,19.20
2018-05-12T20:14:41.961Z,19.20
2018-05-12T20:17:10.265Z,19.10
2018-05-12T20:19:37.767Z,19.10
2018-05-12T20:22:05.274Z,19.10
2018-05-12T20:24:33.575Z,19.10
2018-05-12T20:27:01.089Z,19.10
2018-05-12T20:29:28.589Z,19.10
2018-05-12T20:31:56.871Z,19.10
2018-05-12T20:34:24.431Z,19.00
2018-05-12T20:36:51.965Z,19.00
2018-05-12T20:39:20.257Z,19.00
2018-05-12T20:41:47.779Z,19.00
2018-05-12T20:44:15.338Z,19.00
2018-05-12T20:46:42.920Z,18.90
2018-05-12T20:49:11.761Z,18.90
2018-05-12T20:51:39.966Z,18.80
2018-05-12T20:54:07.480Z,18.80
2018-05-12T20:56:34.971Z,18.80
2018-05-12T20:59:03.240Z,18.70
2018-05-12T21:01:31.548Z,18.70
2018-05-12T21:03:59.034Z,18.70
2018-05-12T21:06:26.551Z,18.70
2018-05-12T21:08:54.836Z,18.50
2018-05-12T21:11:23.087Z,18.40
2018-05-12T21:13:50.906Z,18.40
2018-05-12T21:16:18.468Z,18.40
2018-05-12T21:18:46.024Z,18.30
2018-05-12T21:21:13.607Z,18.20
2018-05-12T21:23:41.138Z,18.20
2018-05-12T21:26:09.433Z,18.10
2018-05-12T21:28:37.032Z,18.10
2018-05-12T21:31:04.564Z,18.00
2018-05-12T21:33:32.144Z,17.90
2018-05-12T21:36:00.008Z,17.90
2018-05-12T21:38:27.522Z,17.80
2018-05-12T21:40:55.148Z,17.80
2018-05-12T21:43:22.944Z,17.70
2018-05-12T21:45:50.466Z,17.70
2018-05-12T21:48:17.991Z,17.70
2018-05-12T21:50:46.295Z,17.60
2018-05-12T21:53:14.575Z,17.50
2018-05-12T21:55:42.842Z,17.50
2018-05-12T21:58:10.352Z,17.40
2018-05-12T22:00:37.854Z,17.40
2018-05-12T22:03:05.453Z,17.30
2018-05-12T22:05:33.730Z,17.20
2018-05-12T22:08:02.904Z,17.20
2018-05-12T22:10:31.836Z,17.10
2018-05-12T22:12:59.356Z,17.10
2018-05-12T22:15:27.613Z,17.10
2018-05-12T22:17:55.112Z,17.00
2018-05-12T22:20:22.633Z,17.00
2018-05-12T22:22:50.148Z,16.90
2018-05-12T22:25:18.440Z,16.80
2018-05-12T22:27:46.752Z,16.80
2018-05-12T22:30:14.300Z,16.80
2018-05-12T22:32:42.172Z,16.70
2018-05-12T22:35:10.143Z,16.70
2018-05-12T22:37:38.454Z,16.60
2018-05-12T22:40:05.957Z,16.60
2018-05-12T22:42:35.004Z,16.60
2018-05-12T22:45:02.563Z,16.60
2018-05-12T22:47:30.074Z,16.50
2018-05-12T22:49:57.582Z,16.50
2018-05-12T22:52:25.071Z,16.50
2018-05-12T22:54:52.620Z,16.50
2018-05-12T22:57:20.280Z,16.50
2018-05-12T22:59:47.835Z,16.40
2018-05-12T23:02:16.135Z,16.40
2018-05-12T23:04:43.674Z,16.40
2018-05-12T23:07:11.216Z,16.40
2018-05-12T23:09:38.759Z,16.30
2018-05-12T23:12:06.276Z,16.30
2018-05-12T23:14:33.855Z,16.30
2018-05-12T23:17:02.139Z,16.30
2018-05-12T23:19:29.693Z,16.20
2018-05-12T23:21:57.191Z,16.20
2018-05-12T23:24:25.648Z,16.20
2018-05-12T23:26:53.146Z,16.20
2018-05-12T23:29:20.862Z,16.20
2018-05-12T23:31:48.377Z,16.20
2018-05-12T23:34:16.619Z,16.20
2018-05-12T23:36:44.170Z,16.10
2018-05-12T23:39:11.726Z,16.10
2018-05-12T23:41:39.232Z,16.10
2018-05-12T23:44:06.780Z,16.10
2018-05-12T23:46:34.304Z,16.10
2018-05-12T23:49:02.604Z,16.00
2018-05-12T23:51:30.259Z,16.00
2018-05-12T23:53:58.583Z,16.00
2018-05-12T23:56:26.353Z,16.00
2018-05-12T23:58:54.090Z,16.00
